Observations for JERSEY AIRPORT, United Kingdom (EGJJ)

EGJJ 260450Z 30003KT 260V320 5000 BR OVC004 16/16 Q1019 
EGJJ 260420Z AUTO 36003KT 280V050 8000 OVC003/// 16/16 Q1018
EGJJ 260350Z AUTO 36003KT 330V040 9999 2300 OVC003/// 16/16 Q1018   
EGJJ 260320Z AUTO VRB02KT 9999 2100 OVC004/// 17/16 Q1019   
EGJJ 260250Z AUTO 29004KT 9999 OVC004/// 16/16 Q1019
EGJJ 260220Z AUTO VRB02KT 9999 BKN004/// OVC005/// 17/16 Q1019  
EGJJ 260150Z AUTO 32003KT 280V350 9999 OVC003/// 17/16 Q1019
EGJJ 260120Z AUTO 32003KT 280V020 9999 BKN004/// OVC005/// 17/16 Q1019  
EGJJ 260050Z AUTO 33004KT 290V360 9999 OVC004/// 17/16 Q1019
EGJJ 260020Z AUTO 34003KT 300V040 9999 OVC004/// 17/16 Q1019
EGJJ 252350Z AUTO 33005KT 290V020 9999 OVC005/// 17/16 Q1020
EGJJ 252320Z AUTO 34005KT 310V020 9999 OVC005/// 17/17 Q1020
EGJJ 252250Z AUTO 32004KT 290V010 9999 OVC005/// 17/16 Q1020
EGJJ 252220Z AUTO 32005KT 9999 OVC005/// 17/16 Q1020
EGJJ 252150Z AUTO 32005KT 290V360 9999 OVC004/// 17/16 Q1020
EGJJ 252120Z AUTO 30006KT 9999 BKN005/// OVC006/// 17/16 Q1020  
EGJJ 252050Z AUTO 30006KT 9000 HZ NCD 16/16 Q1020   
EGJJ 252020Z AUTO 31006KT 9999 HZ NCD 16/15 Q1020   
EGJJ 251950Z 31005KT 9999 FEW004 16/15 Q1019
EGJJ 251920Z 30007KT 9999 FEW005 17/15 Q1019
EGJJ 251850Z 28007KT 9999 FEW008 17/15 Q1019
EGJJ 251820Z 28007KT 9999 FEW012 18/16 Q1019
EGJJ 251750Z 27006KT 9999 FEW012 19/16 Q1019
EGJJ 251720Z 27006KT 250V310 CAVOK 19/15 Q1019  
EGJJ 251650Z 28005KT 240V320 9999 FEW010 20/16 Q1019
EGJJ 251620Z 28007KT 250V320 9999 FEW010 20/16 Q1019
EGJJ 251550Z 27007KT 250V310 9999 FEW010 20/16 Q1019
EGJJ 251520Z 27007KT 240V300 9999 FEW010 20/16 Q1019
EGJJ 251450Z 28008KT 230V310 9999 FEW012 20/16 Q1019
EGJJ 251420Z 29008KT 250V320 9999 FEW007 21/16 Q1019
EGJJ 251350Z 28008KT 240V310 9999 FEW007 20/16 Q1019
EGJJ 251320Z 28007KT 250V310 9999 FEW005 SCT008 20/17 Q1019 
EGJJ 251250Z 29007KT 260V320 9999 FEW005 BKN008 BKN011 18/16 Q1019  
EGJJ 251220Z 28008KT 250V320 9999 FEW003 SCT005 20/17 Q1019 
EGJJ 251150Z 28007KT 260V320 9999 FEW003 BKN005 18/16 Q1019 
EGJJ 251120Z 28009KT 260V320 9999 FEW004 BKN007 19/17 Q1019 
EGJJ 251050Z 29008KT 9999 FEW003 SCT008 19/17 Q1019 
EGJJ 251020Z 29009KT 9999 FEW003 SCT006 19/17 Q1019 
EGJJ 250950Z 28008KT 260V330 9999 FEW004 19/17 Q1019
EGJJ 250920Z 29009KT 250V320 9999 SCT006 20/18 Q1018
EGJJ 250850Z 30009KT 9999 BKN005 19/18 Q1018
EGJJ 250820Z 29008KT 9999 BKN005 18/18 Q1018
EGJJ 250750Z 29010KT 9999 BKN004 17/17 Q1018
EGJJ 250720Z 28008KT 9999 4500NW VCFG FEW000 BKN003 17/17 Q1017 
EGJJ 250650Z 28009KT 9000 SCT003 18/17 Q1017
EGJJ 250620Z 28008KT 7000 SCT004 17/17 Q1017
EGJJ 250550Z 28007KT 9000 BKN004 17/16 Q1017
EGJJ 250520Z 28008KT 8000 BKN004 17/16 Q1017
EGJJ 250450Z 28008KT 5000 BR FEW001 BKN003 17/16 Q1016  
EGJJ 250420Z AUTO 28008KT 3400 HZ BKN002/// BKN003/// 17/17 Q1016